sensor_id;sensor_type;location;lat;lon;timestamp;P1;durP1;ratioP1;P2;durP2;ratioP2
23614;SDS011;11985;49.404;7.734;2023-11-19T00:03:00;0.27;;;0.27;;
23614;SDS011;11985;49.404;7.734;2023-11-19T00:08:02;0.95;;;0.80;;
23614;SDS011;11985;49.404;7.734;2023-11-19T00:13:05;2.85;;;0.90;;
23614;SDS011;11985;49.404;7.734;2023-11-19T00:18:10;0.43;;;0.40;;
23614;SDS011;11985;49.404;7.734;2023-11-19T00:23:12;0.60;;;0.60;;
23614;SDS011;11985;49.404;7.734;2023-11-19T00:28:15;0.90;;;0.70;;
23614;SDS011;11985;49.404;7.734;2023-11-19T00:33:19;0.65;;;0.63;;
23614;SDS011;11985;49.404;7.734;2023-11-19T00:38:21;0.98;;;0.47;;
23614;SDS011;11985;49.404;7.734;2023-11-19T00:43:24;2.80;;;0.70;;
23614;SDS011;11985;49.404;7.734;2023-11-19T00:48:26;0.60;;;0.50;;
23614;SDS011;11985;49.404;7.734;2023-11-19T00:53:28;0.50;;;0.47;;
23614;SDS011;11985;49.404;7.734;2023-11-19T00:58:31;0.85;;;0.45;;
23614;SDS011;11985;49.404;7.734;2023-11-19T01:03:32;0.40;;;0.40;;
23614;SDS011;11985;49.404;7.734;2023-11-19T01:08:34;0.50;;;0.50;;
23614;SDS011;11985;49.404;7.734;2023-11-19T01:13:37;0.90;;;0.47;;
23614;SDS011;11985;49.404;7.734;2023-11-19T01:18:39;0.47;;;0.35;;
23614;SDS011;11985;49.404;7.734;2023-11-19T01:23:41;0.35;;;0.35;;
23614;SDS011;11985;49.404;7.734;2023-11-19T01:28:45;0.60;;;0.60;;
23614;SDS011;11985;49.404;7.734;2023-11-19T01:33:48;0.60;;;0.60;;
23614;SDS011;11985;49.404;7.734;2023-11-19T01:38:50;1.63;;;0.55;;
23614;SDS011;11985;49.404;7.734;2023-11-19T01:43:53;0.60;;;0.60;;
23614;SDS011;11985;49.404;7.734;2023-11-19T01:48:55;0.88;;;0.60;;
23614;SDS011;11985;49.404;7.734;2023-11-19T01:53:58;0.90;;;0.77;;
23614;SDS011;11985;49.404;7.734;2023-11-19T01:59:01;0.80;;;0.80;;
23614;SDS011;11985;49.404;7.734;2023-11-19T02:04:04;0.70;;;0.60;;
23614;SDS011;11985;49.404;7.734;2023-11-19T02:09:06;2.25;;;1.02;;
23614;SDS011;11985;49.404;7.734;2023-11-19T02:14:09;1.08;;;0.93;;
23614;SDS011;11985;49.404;7.734;2023-11-19T02:19:13;1.00;;;0.90;;
23614;SDS011;11985;49.404;7.734;2023-11-19T02:24:15;2.47;;;0.88;;
23614;SDS011;11985;49.404;7.734;2023-11-19T02:29:24;0.82;;;0.70;;
23614;SDS011;11985;49.404;7.734;2023-11-19T02:34:26;4.40;;;1.00;;
23614;SDS011;11985;49.404;7.734;2023-11-19T02:39:27;1.20;;;1.10;;
23614;SDS011;11985;49.404;7.734;2023-11-19T02:44:30;3.53;;;1.00;;
23614;SDS011;11985;49.404;7.734;2023-11-19T02:49:32;1.10;;;1.00;;
23614;SDS011;11985;49.404;7.734;2023-11-19T02:54:34;1.38;;;1.00;;
23614;SDS011;11985;49.404;7.734;2023-11-19T02:59:37;2.08;;;1.10;;
23614;SDS011;11985;49.404;7.734;2023-11-19T03:04:41;1.13;;;1.00;;
23614;SDS011;11985;49.404;7.734;2023-11-19T03:09:45;1.03;;;0.93;;
23614;SDS011;11985;49.404;7.734;2023-11-19T03:14:48;1.00;;;0.80;;
23614;SDS011;11985;49.404;7.734;2023-11-19T03:19:50;1.55;;;1.10;;
23614;SDS011;11985;49.404;7.734;2023-11-19T03:24:52;1.60;;;1.17;;
23614;SDS011;11985;49.404;7.734;2023-11-19T03:29:55;3.03;;;1.70;;
23614;SDS011;11985;49.404;7.734;2023-11-19T03:34:57;1.88;;;1.60;;
23614;SDS011;11985;49.404;7.734;2023-11-19T03:39:59;3.63;;;2.28;;
23614;SDS011;11985;49.404;7.734;2023-11-19T03:45:02;3.78;;;3.03;;
23614;SDS011;11985;49.404;7.734;2023-11-19T03:50:05;4.72;;;3.40;;
23614;SDS011;11985;49.404;7.734;2023-11-19T03:55:08;5.53;;;4.00;;
23614;SDS011;11985;49.404;7.734;2023-11-19T04:00:12;10.40;;;5.53;;
23614;SDS011;11985;49.404;7.734;2023-11-19T04:05:14;20.20;;;7.13;;
23614;SDS011;11985;49.404;7.734;2023-11-19T04:10:15;28.95;;;8.38;;
23614;SDS011;11985;49.404;7.734;2023-11-19T04:15:20;42.45;;;9.00;;
23614;SDS011;11985;49.404;7.734;2023-11-19T04:20:21;28.60;;;8.70;;
23614;SDS011;11985;49.404;7.734;2023-11-19T04:25:23;22.55;;;8.50;;
23614;SDS011;11985;49.404;7.734;2023-11-19T04:30:27;16.90;;;8.63;;
23614;SDS011;11985;49.404;7.734;2023-11-19T04:35:29;16.50;;;8.23;;
23614;SDS011;11985;49.404;7.734;2023-11-19T04:40:30;15.77;;;8.00;;
23614;SDS011;11985;49.404;7.734;2023-11-19T04:45:36;11.95;;;6.28;;
23614;SDS011;11985;49.404;7.734;2023-11-19T04:50:38;8.10;;;5.90;;
23614;SDS011;11985;49.404;7.734;2023-11-19T04:55:39;9.70;;;6.03;;
23614;SDS011;11985;49.404;7.734;2023-11-19T05:00:42;8.63;;;5.78;;
23614;SDS011;11985;49.404;7.734;2023-11-19T05:05:44;8.20;;;4.95;;
23614;SDS011;11985;49.404;7.734;2023-11-19T05:10:46;10.32;;;5.53;;
23614;SDS011;11985;49.404;7.734;2023-11-19T05:15:49;11.75;;;5.68;;
23614;SDS011;11985;49.404;7.734;2023-11-19T05:20:51;11.40;;;6.18;;
23614;SDS011;11985;49.404;7.734;2023-11-19T05:25:52;10.88;;;5.30;;
23614;SDS011;11985;49.404;7.734;2023-11-19T05:30:55;10.32;;;6.10;;
23614;SDS011;11985;49.404;7.734;2023-11-19T05:35:57;9.63;;;5.60;;
23614;SDS011;11985;49.404;7.734;2023-11-19T05:40:59;7.78;;;5.15;;
23614;SDS011;11985;49.404;7.734;2023-11-19T05:46:02;7.70;;;5.25;;
23614;SDS011;11985;49.404;7.734;2023-11-19T05:51:04;14.60;;;4.35;;
23614;SDS011;11985;49.404;7.734;2023-11-19T05:56:06;7.20;;;3.58;;
23614;SDS011;11985;49.404;7.734;2023-11-19T06:01:10;5.63;;;2.88;;
23614;SDS011;11985;49.404;7.734;2023-11-19T06:06:12;6.43;;;3.30;;
23614;SDS011;11985;49.404;7.734;2023-11-19T06:11:14;9.10;;;3.20;;
23614;SDS011;11985;49.404;7.734;2023-11-19T06:16:20;8.25;;;2.90;;
23614;SDS011;11985;49.404;7.734;2023-11-19T06:21:21;7.82;;;2.95;;
23614;SDS011;11985;49.404;7.734;2023-11-19T06:26:23;6.38;;;3.38;;
23614;SDS011;11985;49.404;7.734;2023-11-19T06:31:26;5.95;;;3.42;;
23614;SDS011;11985;49.404;7.734;2023-11-19T06:36:27;5.93;;;2.83;;
23614;SDS011;11985;49.404;7.734;2023-11-19T06:41:29;6.57;;;3.20;;
23614;SDS011;11985;49.404;7.734;2023-11-19T06:46:32;7.38;;;3.08;;
23614;SDS011;11985;49.404;7.734;2023-11-19T06:51:34;6.60;;;2.97;;
23614;SDS011;11985;49.404;7.734;2023-11-19T06:56:36;4.07;;;2.67;;
23614;SDS011;11985;49.404;7.734;2023-11-19T07:01:39;2.60;;;2.10;;
23614;SDS011;11985;49.404;7.734;2023-11-19T07:06:43;2.63;;;1.77;;
23614;SDS011;11985;49.404;7.734;2023-11-19T07:11:45;3.55;;;1.40;;
23614;SDS011;11985;49.404;7.734;2023-11-19T07:16:48;2.38;;;1.02;;
23614;SDS011;11985;49.404;7.734;2023-11-19T07:21:51;2.05;;;1.27;;
23614;SDS011;11985;49.404;7.734;2023-11-19T07:26:54;2.83;;;1.58;;
23614;SDS011;11985;49.404;7.734;2023-11-19T07:31:57;4.47;;;1.60;;
23614;SDS011;11985;49.404;7.734;2023-11-19T07:36:59;5.82;;;1.80;;
23614;SDS011;11985;49.404;7.734;2023-11-19T07:42:02;3.20;;;1.80;;
23614;SDS011;11985;49.404;7.734;2023-11-19T07:47:06;4.80;;;2.03;;
23614;SDS011;11985;49.404;7.734;2023-11-19T07:52:07;4.78;;;2.17;;
23614;SDS011;11985;49.404;7.734;2023-11-19T07:57:09;8.65;;;2.75;;
23614;SDS011;11985;49.404;7.734;2023-11-19T08:02:12;6.03;;;2.42;;
23614;SDS011;11985;49.404;7.734;2023-11-19T08:07:15;4.23;;;2.27;;
23614;SDS011;11985;49.404;7.734;2023-11-19T08:12:16;3.95;;;1.90;;
23614;SDS011;11985;49.404;7.734;2023-11-19T08:17:19;5.68;;;2.47;;
23614;SDS011;11985;49.404;7.734;2023-11-19T08:27:24;4.25;;;2.05;;
23614;SDS011;11985;49.404;7.734;2023-11-19T08:32:28;4.95;;;2.33;;
23614;SDS011;11985;49.404;7.734;2023-11-19T08:37:30;8.52;;;2.30;;
23614;SDS011;11985;49.404;7.734;2023-11-19T08:42:31;6.93;;;2.60;;
23614;SDS011;11985;49.404;7.734;2023-11-19T08:47:34;6.57;;;3.10;;
23614;SDS011;11985;49.404;7.734;2023-11-19T08:52:36;5.53;;;2.20;;
23614;SDS011;11985;49.404;7.734;2023-11-19T08:57:38;6.47;;;1.98;;
23614;SDS011;11985;49.404;7.734;2023-11-19T09:02:41;5.32;;;2.60;;
23614;SDS011;11985;49.404;7.734;2023-11-19T09:07:43;7.30;;;2.22;;
23614;SDS011;11985;49.404;7.734;2023-11-19T09:12:44;6.43;;;1.77;;
23614;SDS011;11985;49.404;7.734;2023-11-19T09:17:47;6.55;;;2.03;;
23614;SDS011;11985;49.404;7.734;2023-11-19T09:22:49;6.57;;;1.80;;
23614;SDS011;11985;49.404;7.734;2023-11-19T09:27:51;5.45;;;1.70;;
23614;SDS011;11985;49.404;7.734;2023-11-19T09:32:54;4.80;;;1.85;;
23614;SDS011;11985;49.404;7.734;2023-11-19T09:37:56;4.97;;;2.03;;
23614;SDS011;11985;49.404;7.734;2023-11-19T09:42:57;4.60;;;1.83;;
23614;SDS011;11985;49.404;7.734;2023-11-19T09:48:01;4.75;;;1.30;;
23614;SDS011;11985;49.404;7.734;2023-11-19T09:53:03;4.75;;;1.92;;
23614;SDS011;11985;49.404;7.734;2023-11-19T09:58:06;5.72;;;1.77;;
23614;SDS011;11985;49.404;7.734;2023-11-19T10:03:10;3.28;;;1.30;;
23614;SDS011;11985;49.404;7.734;2023-11-19T10:08:13;7.03;;;1.50;;
23614;SDS011;11985;49.404;7.734;2023-11-19T10:13:16;6.10;;;1.83;;
23614;SDS011;11985;49.404;7.734;2023-11-19T10:18:20;4.53;;;1.48;;
23614;SDS011;11985;49.404;7.734;2023-11-19T10:23:25;9.32;;;2.63;;
23614;SDS011;11985;49.404;7.734;2023-11-19T10:28:26;6.03;;;1.50;;
23614;SDS011;11985;49.404;7.734;2023-11-19T10:33:29;5.00;;;1.40;;
23614;SDS011;11985;49.404;7.734;2023-11-19T10:38:31;4.88;;;1.42;;
23614;SDS011;11985;49.404;7.734;2023-11-19T10:43:42;4.85;;;1.30;;
23614;SDS011;11985;49.404;7.734;2023-11-19T10:48:46;6.95;;;1.70;;
23614;SDS011;11985;49.404;7.734;2023-11-19T10:53:47;4.47;;;1.10;;
23614;SDS011;11985;49.404;7.734;2023-11-19T10:58:51;4.45;;;1.00;;
23614;SDS011;11985;49.404;7.734;2023-11-19T11:03:56;6.63;;;0.97;;
23614;SDS011;11985;49.404;7.734;2023-11-19T11:09:00;3.60;;;1.05;;
23614;SDS011;11985;49.404;7.734;2023-11-19T11:14:04;5.07;;;1.00;;
23614;SDS011;11985;49.404;7.734;2023-11-19T11:19:07;10.25;;;1.38;;
23614;SDS011;11985;49.404;7.734;2023-11-19T11:24:21;5.18;;;0.80;;
23614;SDS011;11985;49.404;7.734;2023-11-19T11:29:40;6.18;;;1.23;;
23614;SDS011;11985;49.404;7.734;2023-11-19T11:35:01;5.47;;;1.95;;
23614;SDS011;11985;49.404;7.734;2023-11-19T11:40:25;5.28;;;1.25;;
23614;SDS011;11985;49.404;7.734;2023-11-19T11:45:37;3.97;;;1.27;;
23614;SDS011;11985;49.404;7.734;2023-11-19T11:50:50;4.18;;;1.30;;
23614;SDS011;11985;49.404;7.734;2023-11-19T11:55:59;6.22;;;1.55;;
23614;SDS011;11985;49.404;7.734;2023-11-19T12:01:03;10.38;;;1.50;;
23614;SDS011;11985;49.404;7.734;2023-11-19T12:06:08;8.07;;;1.70;;
23614;SDS011;11985;49.404;7.734;2023-11-19T12:11:10;5.32;;;1.15;;
23614;SDS011;11985;49.404;7.734;2023-11-19T12:16:12;3.40;;;1.38;;
23614;SDS011;11985;49.404;7.734;2023-11-19T12:21:28;3.08;;;1.00;;
23614;SDS011;11985;49.404;7.734;2023-11-19T12:26:31;5.40;;;1.27;;
23614;SDS011;11985;49.404;7.734;2023-11-19T12:31:35;10.17;;;1.20;;
23614;SDS011;11985;49.404;7.734;2023-11-19T12:36:38;3.60;;;1.08;;
23614;SDS011;11985;49.404;7.734;2023-11-19T12:41:48;1.77;;;0.68;;
23614;SDS011;11985;49.404;7.734;2023-11-19T12:47:00;7.30;;;1.38;;
23614;SDS011;11985;49.404;7.734;2023-11-19T12:52:16;6.43;;;1.63;;
23614;SDS011;11985;49.404;7.734;2023-11-19T12:57:18;2.92;;;1.10;;
23614;SDS011;11985;49.404;7.734;2023-11-19T13:02:20;7.85;;;1.38;;
23614;SDS011;11985;49.404;7.734;2023-11-19T13:07:23;3.38;;;1.33;;
23614;SDS011;11985;49.404;7.734;2023-11-19T13:12:25;3.28;;;1.13;;
23614;SDS011;11985;49.404;7.734;2023-11-19T13:17:26;7.07;;;1.80;;
23614;SDS011;11985;49.404;7.734;2023-11-19T13:22:29;6.50;;;1.40;;
23614;SDS011;11985;49.404;7.734;2023-11-19T13:27:31;7.80;;;1.58;;
23614;SDS011;11985;49.404;7.734;2023-11-19T13:32:33;4.68;;;1.23;;
23614;SDS011;11985;49.404;7.734;2023-11-19T13:37:36;5.22;;;1.48;;
23614;SDS011;11985;49.404;7.734;2023-11-19T13:42:37;5.63;;;0.95;;
23614;SDS011;11985;49.404;7.734;2023-11-19T13:47:41;6.85;;;1.20;;
23614;SDS011;11985;49.404;7.734;2023-11-19T13:52:45;6.72;;;1.25;;
23614;SDS011;11985;49.404;7.734;2023-11-19T13:57:47;8.52;;;1.75;;
23614;SDS011;11985;49.404;7.734;2023-11-19T14:02:49;9.95;;;1.85;;
23614;SDS011;11985;49.404;7.734;2023-11-19T14:07:53;4.97;;;1.52;;
23614;SDS011;11985;49.404;7.734;2023-11-19T14:12:56;7.40;;;1.70;;
23614;SDS011;11985;49.404;7.734;2023-11-19T14:17:58;5.28;;;1.25;;
23614;SDS011;11985;49.404;7.734;2023-11-19T14:23:01;9.48;;;1.60;;
23614;SDS011;11985;49.404;7.734;2023-11-19T14:28:03;3.88;;;1.08;;
23614;SDS011;11985;49.404;7.734;2023-11-19T14:33:05;7.28;;;1.63;;
23614;SDS011;11985;49.404;7.734;2023-11-19T14:38:08;5.32;;;1.15;;
23614;SDS011;11985;49.404;7.734;2023-11-19T14:43:10;4.78;;;1.92;;
23614;SDS011;11985;49.404;7.734;2023-11-19T14:48:12;10.07;;;1.50;;
23614;SDS011;11985;49.404;7.734;2023-11-19T14:53:15;7.38;;;1.10;;
23614;SDS011;11985;49.404;7.734;2023-11-19T14:58:18;7.53;;;1.40;;
23614;SDS011;11985;49.404;7.734;2023-11-19T15:03:19;5.65;;;1.70;;
23614;SDS011;11985;49.404;7.734;2023-11-19T15:08:22;7.53;;;1.60;;
23614;SDS011;11985;49.404;7.734;2023-11-19T15:13:24;12.65;;;3.20;;
23614;SDS011;11985;49.404;7.734;2023-11-19T15:18:25;8.70;;;2.50;;
23614;SDS011;11985;49.404;7.734;2023-11-19T15:23:29;8.85;;;1.63;;
23614;SDS011;11985;49.404;7.734;2023-11-19T15:28:31;3.35;;;1.15;;
23614;SDS011;11985;49.404;7.734;2023-11-19T15:33:32;13.05;;;1.83;;
23614;SDS011;11985;49.404;7.734;2023-11-19T15:38:35;9.55;;;3.03;;
23614;SDS011;11985;49.404;7.734;2023-11-19T15:43:37;15.80;;;3.35;;
23614;SDS011;11985;49.404;7.734;2023-11-19T15:48:38;8.93;;;1.80;;
23614;SDS011;11985;49.404;7.734;2023-11-19T15:53:42;6.70;;;1.77;;
23614;SDS011;11985;49.404;7.734;2023-11-19T15:58:47;8.52;;;1.65;;
23614;SDS011;11985;49.404;7.734;2023-11-19T16:03:50;6.07;;;1.70;;
23614;SDS011;11985;49.404;7.734;2023-11-19T16:08:53;8.73;;;1.70;;
23614;SDS011;11985;49.404;7.734;2023-11-19T16:13:56;10.02;;;1.77;;
23614;SDS011;11985;49.404;7.734;2023-11-19T16:18:57;12.05;;;2.42;;
23614;SDS011;11985;49.404;7.734;2023-11-19T16:24:00;9.52;;;1.90;;
23614;SDS011;11985;49.404;7.734;2023-11-19T16:29:02;9.02;;;1.90;;
23614;SDS011;11985;49.404;7.734;2023-11-19T16:34:05;6.90;;;1.52;;
23614;SDS011;11985;49.404;7.734;2023-11-19T16:39:09;10.00;;;1.70;;
23614;SDS011;11985;49.404;7.734;2023-11-19T16:44:13;11.95;;;1.50;;
23614;SDS011;11985;49.404;7.734;2023-11-19T16:49:15;9.38;;;1.77;;
23614;SDS011;11985;49.404;7.734;2023-11-19T16:54:18;10.23;;;2.13;;
23614;SDS011;11985;49.404;7.734;2023-11-19T16:59:20;11.63;;;1.77;;
23614;SDS011;11985;49.404;7.734;2023-11-19T17:04:21;12.65;;;2.83;;
23614;SDS011;11985;49.404;7.734;2023-11-19T17:09:24;7.95;;;1.75;;
23614;SDS011;11985;49.404;7.734;2023-11-19T17:14:26;9.70;;;1.60;;
23614;SDS011;11985;49.404;7.734;2023-11-19T17:19:28;11.15;;;2.10;;
23614;SDS011;11985;49.404;7.734;2023-11-19T17:24:31;12.23;;;1.90;;
23614;SDS011;11985;49.404;7.734;2023-11-19T17:29:33;11.00;;;2.25;;
23614;SDS011;11985;49.404;7.734;2023-11-19T17:34:34;12.07;;;2.70;;
23614;SDS011;11985;49.404;7.734;2023-11-19T17:39:37;8.40;;;1.95;;
23614;SDS011;11985;49.404;7.734;2023-11-19T17:44:39;16.13;;;2.22;;
23614;SDS011;11985;49.404;7.734;2023-11-19T17:49:41;8.38;;;2.28;;
23614;SDS011;11985;49.404;7.734;2023-11-19T17:54:44;17.10;;;6.07;;
23614;SDS011;11985;49.404;7.734;2023-11-19T17:59:46;18.73;;;2.72;;
23614;SDS011;11985;49.404;7.734;2023-11-19T18:04:49;16.53;;;3.90;;
23614;SDS011;11985;49.404;7.734;2023-11-19T18:09:55;7.30;;;1.75;;
23614;SDS011;11985;49.404;7.734;2023-11-19T18:14:56;11.63;;;2.55;;
23614;SDS011;11985;49.404;7.734;2023-11-19T18:19:58;7.35;;;2.00;;
23614;SDS011;11985;49.404;7.734;2023-11-19T18:25:01;15.45;;;2.60;;
23614;SDS011;11985;49.404;7.734;2023-11-19T18:30:03;13.90;;;2.70;;
23614;SDS011;11985;49.404;7.734;2023-11-19T18:35:06;12.05;;;2.53;;
23614;SDS011;11985;49.404;7.734;2023-11-19T18:40:12;13.07;;;2.45;;
23614;SDS011;11985;49.404;7.734;2023-11-19T18:45:18;14.38;;;2.78;;
23614;SDS011;11985;49.404;7.734;2023-11-19T18:50:21;17.73;;;2.92;;
23614;SDS011;11985;49.404;7.734;2023-11-19T18:55:25;15.65;;;3.20;;
23614;SDS011;11985;49.404;7.734;2023-11-19T19:00:28;11.17;;;2.00;;
23614;SDS011;11985;49.404;7.734;2023-11-19T19:05:29;8.85;;;2.10;;
23614;SDS011;11985;49.404;7.734;2023-11-19T19:10:32;21.35;;;3.72;;
23614;SDS011;11985;49.404;7.734;2023-11-19T19:15:37;15.13;;;2.67;;
23614;SDS011;11985;49.404;7.734;2023-11-19T19:20:39;21.55;;;3.25;;
23614;SDS011;11985;49.404;7.734;2023-11-19T19:25:42;21.02;;;3.28;;
23614;SDS011;11985;49.404;7.734;2023-11-19T19:30:43;17.58;;;3.42;;
23614;SDS011;11985;49.404;7.734;2023-11-19T19:35:45;13.60;;;3.00;;
23614;SDS011;11985;49.404;7.734;2023-11-19T19:40:48;20.13;;;3.17;;
23614;SDS011;11985;49.404;7.734;2023-11-19T19:45:50;24.65;;;3.45;;
23614;SDS011;11985;49.404;7.734;2023-11-19T19:50:51;19.00;;;3.08;;
23614;SDS011;11985;49.404;7.734;2023-11-19T19:55:54;18.83;;;2.78;;
23614;SDS011;11985;49.404;7.734;2023-11-19T20:00:56;15.65;;;2.33;;
23614;SDS011;11985;49.404;7.734;2023-11-19T20:05:59;15.02;;;2.65;;
23614;SDS011;11985;49.404;7.734;2023-11-19T20:11:03;18.77;;;3.53;;
23614;SDS011;11985;49.404;7.734;2023-11-19T20:16:05;25.55;;;3.35;;
23614;SDS011;11985;49.404;7.734;2023-11-19T20:21:07;19.48;;;2.97;;
23614;SDS011;11985;49.404;7.734;2023-11-19T20:26:10;14.75;;;3.03;;
23614;SDS011;11985;49.404;7.734;2023-11-19T20:31:18;24.02;;;3.83;;
23614;SDS011;11985;49.404;7.734;2023-11-19T20:36:19;14.70;;;2.80;;
23614;SDS011;11985;49.404;7.734;2023-11-19T20:41:22;11.63;;;2.63;;
23614;SDS011;11985;49.404;7.734;2023-11-19T20:46:24;16.92;;;3.08;;
23614;SDS011;11985;49.404;7.734;2023-11-19T20:51:26;20.17;;;2.83;;
23614;SDS011;11985;49.404;7.734;2023-11-19T20:56:30;21.50;;;3.08;;
23614;SDS011;11985;49.404;7.734;2023-11-19T21:01:32;23.10;;;3.25;;
23614;SDS011;11985;49.404;7.734;2023-11-19T21:06:34;16.02;;;2.58;;
23614;SDS011;11985;49.404;7.734;2023-11-19T21:11:38;16.65;;;3.08;;
23614;SDS011;11985;49.404;7.734;2023-11-19T21:16:40;21.35;;;3.13;;
23614;SDS011;11985;49.404;7.734;2023-11-19T21:21:41;20.27;;;3.80;;
23614;SDS011;11985;49.404;7.734;2023-11-19T21:26:44;16.40;;;3.60;;
23614;SDS011;11985;49.404;7.734;2023-11-19T21:31:46;19.05;;;2.90;;
23614;SDS011;11985;49.404;7.734;2023-11-19T21:36:49;17.58;;;2.55;;
23614;SDS011;11985;49.404;7.734;2023-11-19T21:41:52;21.80;;;2.72;;
23614;SDS011;11985;49.404;7.734;2023-11-19T21:46:54;17.73;;;2.90;;
23614;SDS011;11985;49.404;7.734;2023-11-19T21:51:56;20.05;;;2.90;;
23614;SDS011;11985;49.404;7.734;2023-11-19T21:56:59;18.42;;;3.20;;
23614;SDS011;11985;49.404;7.734;2023-11-19T22:02:00;18.77;;;2.50;;
23614;SDS011;11985;49.404;7.734;2023-11-19T22:07:02;18.75;;;3.30;;
23614;SDS011;11985;49.404;7.734;2023-11-19T22:12:06;23.85;;;3.10;;
23614;SDS011;11985;49.404;7.734;2023-11-19T22:17:09;18.00;;;2.75;;
23614;SDS011;11985;49.404;7.734;2023-11-19T22:22:10;20.63;;;2.72;;
23614;SDS011;11985;49.404;7.734;2023-11-19T22:27:13;18.00;;;2.65;;
23614;SDS011;11985;49.404;7.734;2023-11-19T22:32:15;18.67;;;2.70;;
23614;SDS011;11985;49.404;7.734;2023-11-19T22:37:17;13.85;;;2.63;;
23614;SDS011;11985;49.404;7.734;2023-11-19T22:42:20;24.85;;;3.33;;
23614;SDS011;11985;49.404;7.734;2023-11-19T22:47:21;23.73;;;3.58;;
23614;SDS011;11985;49.404;7.734;2023-11-19T22:52:23;13.73;;;3.10;;
23614;SDS011;11985;49.404;7.734;2023-11-19T22:57:26;22.73;;;3.25;;
23614;SDS011;11985;49.404;7.734;2023-11-19T23:02:28;22.35;;;3.15;;
23614;SDS011;11985;49.404;7.734;2023-11-19T23:07:29;17.95;;;3.00;;
23614;SDS011;11985;49.404;7.734;2023-11-19T23:12:32;25.75;;;2.85;;
23614;SDS011;11985;49.404;7.734;2023-11-19T23:17:35;14.83;;;3.17;;
23614;SDS011;11985;49.404;7.734;2023-11-19T23:22:37;24.23;;;3.28;;
23614;SDS011;11985;49.404;7.734;2023-11-19T23:27:40;16.00;;;2.85;;
23614;SDS011;11985;49.404;7.734;2023-11-19T23:32:42;22.05;;;2.95;;
23614;SDS011;11985;49.404;7.734;2023-11-19T23:37:43;16.75;;;2.67;;
23614;SDS011;11985;49.404;7.734;2023-11-19T23:42:46;19.50;;;3.47;;
23614;SDS011;11985;49.404;7.734;2023-11-19T23:47:48;19.25;;;2.92;;
23614;SDS011;11985;49.404;7.734;2023-11-19T23:52:49;22.25;;;3.60;;
23614;SDS011;11985;49.404;7.734;2023-11-19T23:57:52;17.77;;;2.55;;
